Strona główna
METAR-TAF:

METAR-TAF

Lotnisko :

Ashtabula County Airport

Ashtabula, Ohio, Stany Zjednoczone

Szerokość geograficzna: 41-46-46N, Długość geograficzna: 080-41-48W, wysokość: 281 m

Aktualna obserwacja pogody

Raport powstał 56 minut temu, godzina 18:53 UTC
Wiatr 13 kt od południe w porywach dochodzący do 19 kt
Temperatura 8°C
Wilgotność 66%
Ciśnienie 1018 hPa
Widzialność: 16.1 km
bezchmurnie

METAR: KHZY 081853Z AUTO 19013G19KT 10SM CLR 08/02 A3006 RMK AO2 SLP185 T00780022

czas: 14:49 (19:49 UTC)


TAF: brakujący

Obserwacja i prognoza pogody dla ponad 4000 lotnisk (raport METAR i TAF).

Dostępne stacje oznaczono żółtymi i czerwonymi punktami na mapie.

Najedź kursorem aby zobaczyć nazwę stacji.

Kliknij aby zobaczyć obserwacje i prognozy pogody.

Aby zmienić mapę: kliknij na zielony przycisk z czarnym krzyżykiem, aby powiększyć; na zielony przycisk z myślnikiem, aby pomniejszyć; na zielone strzałki, aby przejść do map sąsiednich.


METAR-TAF: